Hauptseite
METAR-TAF:

METAR-TAF

Flughäfen :

Flughafen Sitten

Sion, Schweiz

Breite: 46-13N, Länge: 007-20E, Höhe: 482 m

Beobachtung

Neuester Wetterbericht von vor 21 Minuten, um 18:20 UTC
Wind 9 kt aus West
Temperatur 6°C
Luftfeuchtigkeit 56%
Luftdruck 1012 hPa
Sichtweite 10 km oder mehr
keine Wolken unter 1500 m und keine Kumulonimbus oder Gewitterwolken

METAR: LSGS 221820Z AUTO 26009KT CAVOK 06/M02 Q1012

Zeit: 20:41 (18:41 UTC)

Prognose

Neuester Wetterbericht von vor 4 Stunden und 16 Minuten, um 14:25 UTC
Gültige Prognose vom 22 um 15 UTC bis 22 um 24 UTC
Wind 13 kt aus West/Südwest
Sichtweite 10 km oder mehr
Aufgelockert bewölkt in der Höhe von 6000 ft
Durchbrochene Bewölkung in der Höhe von 10000 ft
Übergehend zu
vom 22 um 20 UTC bis 22 um 22 UTC
Wind 3 kt aus West/Südwest

TAF: LSGS 221425Z 2215/2224 25013KT 9999 SCT060 BKN100 BECMG 2220/2222 25003KT

Wetterbeobachtungen und Prognosen von mehr als 4000 Flughäfen (METAR und TAF Bericht).

Die verfügbaren Stationen werden durch gelbe und rote Markierungen auf der Karte dargestellt.

Führen Sie die Maus auf sie, um den Namen der Station zu sehen.

Darauf klicken, um die Beobachtung von Wetterbeobachtungen und Prognosen zu sehen.

Um die Karte zu ändern : klicken Sie auf den grünen Tasten mit einem schwarzen Kreuz Zum Vergrößern, auf den grünen Button mit einem Gedankenstrich zu verkleinern, oder auf die grünen Pfeile für benachbarte Karten.


METAR-TAF: